Time;durP1;ratioP1;P1;durP2;ratioP2;P2;SDS_P1;SDS_P2;PMS_P1;PMS_P2;Temp;Humidity;BMP_temperature;BMP_pressure;BME280_temperature;BME280_humidity;BME280_pressure;Samples;Min_cycle;Max_cycle;Signal;HPM_P1;HPM_P2
2021/06/16 00:02:18;;;;;;;9.33;7.73;;;21.70;99.90;;;;;;4992523;28;20988;-66
2021/06/16 00:04:45;;;;;;;11.23;8.00;;;21.70;99.90;;;;;;4993770;28;20608;-66
2021/06/16 00:07:11;;;;;;;9.53;8.63;;;21.70;99.90;;;;;;4993825;28;20613;-65
2021/06/16 00:09:39;;;;;;;9.83;8.30;;;21.70;99.90;;;;;;4993565;28;20629;-66
2021/06/16 00:12:06;;;;;;;10.00;9.10;;;21.60;99.90;;;;;;4996448;28;20661;-66
2021/06/16 00:14:33;;;;;;;13.00;7.40;;;21.60;99.90;;;;;;4995840;28;20651;-66
2021/06/16 00:16:59;;;;;;;9.10;8.30;;;21.50;99.90;;;;;;4996753;28;20621;-66
2021/06/16 00:19:25;;;;;;;12.73;8.30;;;21.50;99.90;;;;;;4997054;28;20689;-66
2021/06/16 00:21:52;;;;;;;12.57;9.87;;;21.50;99.90;;;;;;4997016;28;20613;-66
2021/06/16 00:24:20;;;;;;;9.67;8.77;;;21.50;99.90;;;;;;4996912;28;20604;-66
2021/06/16 00:26:47;;;;;;;10.37;9.20;;;21.50;99.90;;;;;;4997237;28;20610;-66
2021/06/16 00:29:14;;;;;;;11.23;9.03;;;21.40;99.90;;;;;;4996789;28;20600;-66
2021/06/16 00:31:41;;;;;;;10.67;9.57;;;21.40;99.90;;;;;;4996834;28;20645;-66
2021/06/16 00:34:08;;;;;;;13.37;9.33;;;21.40;99.90;;;;;;4996878;28;20693;-66
2021/06/16 00:36:34;;;;;;;9.57;8.57;;;21.40;99.90;;;;;;4996643;28;20617;-66
2021/06/16 00:39:04;;;;;;;11.53;10.53;;;21.50;99.90;;;;;;4996989;28;20609;-66
2021/06/16 00:41:30;;;;;;;12.43;9.80;;;21.40;99.90;;;;;;4996616;28;20637;-66
2021/06/16 00:43:56;;;;;;;14.70;9.83;;;21.30;99.90;;;;;;4996475;28;20976;-66
2021/06/16 00:46:23;;;;;;;10.97;9.60;;;21.30;99.90;;;;;;4996682;28;20566;-66
2021/06/16 00:48:49;;;;;;;11.30;10.30;;;21.20;99.90;;;;;;4996729;28;20597;-66
2021/06/16 00:51:16;;;;;;;9.87;9.00;;;21.10;99.90;;;;;;4995481;28;20637;-65
2021/06/16 00:53:42;;;;;;;11.00;9.90;;;21.10;99.90;;;;;;4996701;28;21060;-66
2021/06/16 00:56:10;;;;;;;11.40;10.23;;;21.10;99.90;;;;;;4996304;28;20625;-66
2021/06/16 00:58:36;;;;;;;11.60;10.50;;;21.20;99.90;;;;;;4996554;28;20616;-66
2021/06/16 01:01:11;;;;;;;18.33;11.80;;;21.20;99.90;;;;;;4996860;28;20967;-68
2021/06/16 01:04:07;;;;;;;15.03;11.43;;;21.10;99.90;;;;;;4996347;28;21047;-68
2021/06/16 01:06:44;;;;;;;12.70;10.10;;;21.00;99.90;;;;;;4996346;28;20558;-67
2021/06/16 01:09:18;;;;;;;18.03;11.50;;;21.00;99.90;;;;;;4996374;28;20570;-68
2021/06/16 01:12:26;;;;;;;13.10;10.20;;;20.90;99.90;;;;;;4995944;28;20665;-68
2021/06/16 01:15:02;;;;;;;11.03;10.03;;;20.90;99.90;;;;;;4996214;28;20604;-67
2021/06/16 01:17:30;;;;;;;17.13;11.60;;;20.80;99.90;;;;;;4996347;28;20563;-67
2021/06/16 01:20:20;;;;;;;14.70;11.07;;;20.80;99.90;;;;;;4995949;28;20594;-68
2021/06/16 01:22:58;;;;;;;12.13;10.97;;;20.90;99.90;;;;;;4995569;28;20567;-68
2021/06/16 01:25:48;;;;;;;13.87;11.00;;;20.80;99.90;;;;;;4996312;28;20598;-67
2021/06/16 01:28:18;;;;;;;12.43;10.70;;;20.70;99.90;;;;;;4995797;28;20562;-67
2021/06/16 01:30:46;;;;;;;11.50;10.33;;;20.60;99.90;;;;;;4995948;28;20605;-67
2021/06/16 01:33:15;;;;;;;12.10;10.53;;;20.60;99.90;;;;;;4995713;28;20608;-67
2021/06/16 01:35:46;;;;;;;13.00;11.47;;;20.50;99.90;;;;;;4995915;28;20937;-68
2021/06/16 01:38:15;;;;;;;14.57;11.43;;;20.50;99.90;;;;;;4995684;28;21135;-68
2021/06/16 01:40:44;;;;;;;12.87;11.03;;;20.40;99.90;;;;;;4995843;28;21172;-67
2021/06/16 01:43:10;;;;;;;12.80;11.50;;;20.30;99.90;;;;;;4996011;28;20958;-67
2021/06/16 01:45:39;;;;;;;11.90;10.80;;;20.30;99.90;;;;;;4993917;28;21289;-68
2021/06/16 01:48:08;;;;;;;14.60;11.90;;;20.20;99.90;;;;;;4994653;28;20621;-68
2021/06/16 01:50:36;;;;;;;14.10;11.43;;;20.20;99.90;;;;;;4995469;28;21257;-68
2021/06/16 01:53:03;;;;;;;26.03;13.00;;;20.20;99.90;;;;;;4995690;28;20618;-68
2021/06/16 01:55:30;;;;;;;13.50;12.17;;;20.10;99.90;;;;;;4995335;28;20629;-68
2021/06/16 01:57:59;;;;;;;15.33;12.67;;;20.10;99.90;;;;;;4995450;28;20586;-67
2021/06/16 02:00:27;;;;;;;17.53;11.70;;;20.20;99.90;;;;;;4995090;28;20601;-68
2021/06/16 02:02:55;;;;;;;12.83;11.60;;;20.20;99.90;;;;;;4995189;28;21160;-68
2021/06/16 02:05:23;;;;;;;13.23;12.00;;;20.30;99.90;;;;;;4995101;28;21144;-68
2021/06/16 02:08:00;;;;;;;13.20;10.97;;;20.40;99.90;;;;;;4994933;28;20593;-68
2021/06/16 02:10:33;;;;;;;12.77;11.47;;;20.30;99.90;;;;;;4994889;28;20546;-68
2021/06/16 02:13:03;;;;;;;13.50;12.20;;;20.30;99.90;;;;;;4994951;28;20606;-68
2021/06/16 02:15:35;;;;;;;13.00;11.67;;;20.20;99.90;;;;;;4995435;28;20616;-67
2021/06/16 02:18:04;;;;;;;12.67;10.77;;;20.20;99.90;;;;;;4993844;28;20584;-67
2021/06/16 02:20:31;;;;;;;16.57;11.80;;;20.10;99.90;;;;;;4994763;28;20610;-67
2021/06/16 02:22:57;;;;;;;13.00;11.90;;;20.10;99.90;;;;;;4994727;28;20616;-67
2021/06/16 02:25:24;;;;;;;12.77;11.67;;;20.20;99.90;;;;;;4994865;28;20594;-67
2021/06/16 02:27:50;;;;;;;12.87;11.70;;;20.10;99.90;;;;;;4994920;28;20628;-67
2021/06/16 02:30:17;;;;;;;12.67;11.43;;;20.10;99.90;;;;;;4994655;28;20620;-67
2021/06/16 02:32:45;;;;;;;13.57;12.23;;;20.00;99.90;;;;;;4994572;28;21271;-67
2021/06/16 02:35:13;;;;;;;13.10;11.90;;;19.90;99.90;;;;;;4993812;28;20621;-67
2021/06/16 02:37:47;;;;;;;12.80;11.60;;;19.80;99.90;;;;;;4994625;28;20612;-67
2021/06/16 02:40:16;;;;;;;15.73;11.80;;;19.80;99.90;;;;;;4994523;28;20657;-67
2021/06/16 02:42:46;;;;;;;12.60;11.40;;;19.70;99.90;;;;;;4994207;28;21149;-67
2021/06/16 02:45:15;;;;;;;13.40;12.10;;;19.70;99.90;;;;;;4994259;28;20641;-67
2021/06/16 02:47:46;;;;;;;13.47;12.20;;;19.70;99.90;;;;;;4994318;28;20618;-68
2021/06/16 02:50:18;;;;;;;17.00;11.60;;;19.60;99.90;;;;;;4993381;28;21111;-67
2021/06/16 02:52:46;;;;;;;15.83;13.60;;;19.50;99.90;;;;;;4994822;28;20634;-67
2021/06/16 02:55:13;;;;;;;14.40;12.90;;;19.50;99.90;;;;;;4994287;28;21151;-67
2021/06/16 02:57:43;;;;;;;14.00;12.70;;;19.50;99.90;;;;;;4994342;28;20598;-67
2021/06/16 03:00:12;;;;;;;14.13;12.70;;;19.40;99.90;;;;;;4992583;28;21191;-67
2021/06/16 03:02:42;;;;;;;14.50;12.87;;;19.40;99.90;;;;;;4993848;28;21250;-67
2021/06/16 03:05:11;;;;;;;14.07;12.63;;;19.30;99.90;;;;;;4993899;28;20624;-67
2021/06/16 03:07:40;;;;;;;13.13;12.03;;;19.30;99.90;;;;;;4981815;28;20643;-67
2021/06/16 03:10:08;;;;;;;15.10;11.80;;;19.20;99.90;;;;;;4991625;28;20649;-67
2021/06/16 03:12:36;;;;;;;13.03;11.80;;;19.20;99.90;;;;;;4993907;28;21241;-67
2021/06/16 03:15:04;;;;;;;13.60;12.20;;;19.20;99.90;;;;;;4993542;28;20646;-67
2021/06/16 03:17:32;;;;;;;13.03;11.60;;;19.30;99.90;;;;;;4993862;28;21160;-67
2021/06/16 03:20:00;;;;;;;14.40;12.90;;;19.20;99.90;;;;;;4994605;28;20597;-67
2021/06/16 03:22:29;;;;;;;13.30;12.20;;;19.20;99.90;;;;;;4994386;28;20700;-67
2021/06/16 03:24:55;;;;;;;18.50;12.17;;;19.20;99.90;;;;;;4993911;28;20633;-67
2021/06/16 03:27:23;;;;;;;14.80;13.33;;;19.20;99.90;;;;;;4992835;28;21160;-67
2021/06/16 03:29:53;;;;;;;13.60;12.17;;;19.20;99.90;;;;;;4994099;28;20632;-67
2021/06/16 03:32:24;;;;;;;20.13;13.80;;;19.20;99.90;;;;;;4993943;28;20654;-67
2021/06/16 03:34:50;;;;;;;14.27;12.83;;;19.20;99.90;;;;;;4993953;28;21136;-67
2021/06/16 03:37:18;;;;;;;13.33;12.13;;;19.10;99.90;;;;;;4994039;28;20616;-67
2021/06/16 03:39:45;;;;;;;13.33;12.07;;;19.10;99.90;;;;;;4993846;28;20633;-67
2021/06/16 03:42:12;;;;;;;13.47;12.07;;;19.10;99.90;;;;;;4994036;28;21020;-67
2021/06/16 03:44:39;;;;;;;18.70;13.10;;;19.10;99.90;;;;;;4993782;28;20974;-68
2021/06/16 03:47:07;;;;;;;14.27;12.27;;;19.10;99.90;;;;;;4996952;28;20620;-67
2021/06/16 03:49:35;;;;;;;12.90;11.70;;;19.10;99.90;;;;;;4997938;28;20612;-67
2021/06/16 03:52:02;;;;;;;12.67;11.43;;;19.10;99.90;;;;;;4997604;28;20996;-66
2021/06/16 03:54:29;;;;;;;13.67;12.53;;;19.20;99.90;;;;;;4998046;28;20692;-66
2021/06/16 03:56:56;;;;;;;14.27;11.80;;;19.30;99.90;;;;;;4997562;28;20594;-66
2021/06/16 03:59:22;;;;;;;12.87;11.67;;;19.30;99.90;;;;;;4996129;28;20601;-66
2021/06/16 04:01:49;;;;;;;13.43;12.20;;;19.30;99.90;;;;;;4997643;28;20601;-66
2021/06/16 04:04:17;;;;;;;13.30;11.90;;;19.30;99.90;;;;;;4997569;28;20621;-67
2021/06/16 04:06:45;;;;;;;13.17;11.77;;;19.30;99.90;;;;;;4997512;28;20620;-66
2021/06/16 04:09:13;;;;;;;13.50;12.20;;;19.30;99.90;;;;;;4997471;28;20605;-66
2021/06/16 04:11:41;;;;;;;16.50;12.30;;;19.40;99.90;;;;;;4995752;28;20689;-66
2021/06/16 04:14:08;;;;;;;11.83;10.93;;;19.50;99.90;;;;;;4996813;28;20617;-67
2021/06/16 04:16:34;;;;;;;13.17;11.90;;;19.60;99.90;;;;;;4997107;28;20593;-66
2021/06/16 04:19:01;;;;;;;13.13;11.97;;;19.60;99.90;;;;;;4997151;28;20622;-66
2021/06/16 04:21:28;;;;;;;12.70;11.07;;;19.70;99.90;;;;;;4996958;28;20602;-66
2021/06/16 04:23:54;;;;;;;15.80;12.17;;;19.80;99.90;;;;;;4997344;28;20616;-67
2021/06/16 04:26:22;;;;;;;12.57;11.37;;;19.80;99.90;;;;;;4997033;28;20680;-67
2021/06/16 04:28:49;;;;;;;13.47;12.20;;;19.90;99.90;;;;;;4996839;28;20965;-67
2021/06/16 04:31:16;;;;;;;13.50;11.83;;;20.00;99.90;;;;;;4997004;28;20989;-67
2021/06/16 04:33:42;;;;;;;15.50;11.90;;;19.90;99.90;;;;;;4996985;28;20704;-66
2021/06/16 04:36:09;;;;;;;19.60;12.93;;;19.80;99.90;;;;;;4997072;28;20601;-66
2021/06/16 04:38:36;;;;;;;14.20;11.27;;;19.90;99.90;;;;;;4997104;28;21112;-67
2021/06/16 04:41:04;;;;;;;13.47;11.60;;;19.90;99.90;;;;;;4997444;28;20668;-67
2021/06/16 04:43:30;;;;;;;11.67;10.50;;;20.00;99.90;;;;;;4995540;28;20622;-67
2021/06/16 04:45:59;;;;;;;15.93;12.67;;;20.00;99.90;;;;;;4996595;28;21056;-67
2021/06/16 04:48:26;;;;;;;12.30;11.10;;;20.10;99.90;;;;;;4995429;28;21180;-68
2021/06/16 04:50:53;;;;;;;12.97;11.30;;;20.20;99.90;;;;;;4996598;28;20613;-67
2021/06/16 04:53:19;;;;;;;16.53;13.13;;;20.30;99.90;;;;;;4996378;28;21227;-67
2021/06/16 04:55:46;;;;;;;13.17;11.77;;;20.50;99.90;;;;;;4996778;28;20610;-67
2021/06/16 04:58:12;;;;;;;13.87;12.47;;;20.60;99.90;;;;;;4995633;28;20648;-67
2021/06/16 05:00:40;;;;;;;13.20;11.30;;;20.60;99.90;;;;;;4996696;28;20635;-68
2021/06/16 05:03:06;;;;;;;14.20;10.63;;;20.60;99.90;;;;;;4996306;28;21152;-68
2021/06/16 05:05:33;;;;;;;13.47;11.80;;;20.80;99.90;;;;;;4995544;28;20621;-67
2021/06/16 05:07:59;;;;;;;15.50;11.70;;;20.80;99.90;;;;;;4996698;28;20597;-68
2021/06/16 05:10:26;;;;;;;12.90;11.23;;;20.90;99.90;;;;;;4996613;28;20695;-68
2021/06/16 05:12:52;;;;;;;13.20;11.90;;;21.00;99.90;;;;;;4996445;28;20642;-68
2021/06/16 05:15:19;;;;;;;12.43;11.27;;;21.10;99.90;;;;;;4996190;28;20708;-68
2021/06/16 05:17:45;;;;;;;12.20;11.00;;;21.30;96.50;;;;;;4994594;28;20628;-67
2021/06/16 05:20:13;;;;;;;11.60;10.43;;;21.30;99.90;;;;;;4996057;28;20613;-68
2021/06/16 05:22:41;;;;;;;12.03;10.93;;;21.40;84.90;;;;;;4996102;28;20641;-67
2021/06/16 05:25:10;;;;;;;14.43;11.07;;;21.50;73.90;;;;;;4995949;28;20995;-68
2021/06/16 05:27:37;;;;;;;13.40;11.30;;;21.50;71.80;;;;;;4995952;28;20610;-67
2021/06/16 05:30:05;;;;;;;11.33;10.17;;;21.40;81.00;;;;;;4995941;28;20637;-67
2021/06/16 05:32:31;;;;;;;10.83;9.83;;;21.50;99.90;;;;;;4995936;28;20654;-67
2021/06/16 05:34:58;;;;;;;11.67;9.40;;;21.60;95.10;;;;;;4995660;28;20641;-67
2021/06/16 05:37:24;;;;;;;10.97;9.93;;;21.80;80.00;;;;;;4995613;28;20598;-66
2021/06/16 05:39:51;;;;;;;11.37;10.27;;;21.90;93.00;;;;;;4995741;28;20637;-68
2021/06/16 05:42:18;;;;;;;11.70;9.70;;;22.00;99.90;;;;;;4995684;28;21034;-68
2021/06/16 05:44:44;;;;;;;10.60;9.60;;;22.10;68.80;;;;;;4995244;28;21008;-68
2021/06/16 05:47:11;;;;;;;12.40;9.97;;;22.20;66.80;;;;;;4995659;28;20613;-68
2021/06/16 05:49:38;;;;;;;10.47;9.43;;;22.20;7.90;;;;;;4995503;28;20640;-67
2021/06/16 05:52:04;;;;;;;11.07;8.80;;;22.10;15.70;;;;;;4995508;28;20744;-67
2021/06/16 05:54:31;;;;;;;10.73;8.53;;;22.40;28.50;;;;;;4995231;28;20697;-67
2021/06/16 05:56:58;;;;;;;9.50;8.60;;;22.50;1.00;;;;;;4995279;28;20612;-68
2021/06/16 05:59:25;;;;;;;11.77;8.90;;;22.50;1.00;;;;;;4994097;28;20632;-68
2021/06/16 06:01:51;;;;;;;9.90;8.90;;;22.40;9.00;;;;;;4993684;28;20629;-68
2021/06/16 06:04:17;;;;;;;11.27;9.33;;;22.50;1.00;;;;;;4995155;28;20980;-68
2021/06/16 06:06:44;;;;;;;8.73;7.90;;;22.70;1.00;;;;;;4978141;28;20621;-67
2021/06/16 06:09:10;;;;;;;9.67;7.97;;;22.70;1.00;;;;;;4995294;28;20736;-67
2021/06/16 06:11:37;;;;;;;10.77;8.43;;;22.50;1.00;;;;;;4994949;28;20626;-67
2021/06/16 06:14:04;;;;;;;7.87;7.27;;;22.50;1.00;;;;;;4994619;28;20677;-68
2021/06/16 06:16:31;;;;;;;12.13;8.80;;;22.60;1.00;;;;;;4994993;28;20610;-68
2021/06/16 06:18:57;;;;;;;9.83;8.83;;;22.80;34.50;;;;;;4995075;28;20620;-68
2021/06/16 06:21:30;;;;;;;8.27;7.53;;;22.80;1.00;;;;;;4994851;28;20935;-68
2021/06/16 06:24:01;;;;;;;9.37;7.60;;;22.80;1.00;;;;;;4994759;28;20657;-68
2021/06/16 06:26:27;;;;;;;9.17;8.30;;;22.90;1.00;;;;;;4994697;28;20991;-68
2021/06/16 06:28:55;;;;;;;12.73;7.10;;;22.80;9.60;;;;;;4994882;28;20596;-68
2021/06/16 06:31:22;;;;;;;12.20;8.73;;;22.80;1.00;;;;;;4994672;28;20696;-68
2021/06/16 06:33:48;;;;;;;8.73;7.80;;;23.00;1.00;;;;;;4994597;28;20664;-68
2021/06/16 06:36:15;;;;;;;8.87;7.90;;;23.10;1.00;;;;;;4994705;28;20600;-68
2021/06/16 06:38:41;;;;;;;8.10;7.30;;;23.10;1.00;;;;;;4994632;28;20618;-68
2021/06/16 06:41:08;;;;;;;8.77;7.17;;;23.20;1.00;;;;;;4994454;28;20626;-68
2021/06/16 06:43:34;;;;;;;9.20;8.00;;;23.20;1.00;;;;;;4994355;28;20606;-68
2021/06/16 06:46:00;;;;;;;10.20;7.40;;;23.20;1.00;;;;;;4992936;28;21184;-68
2021/06/16 06:48:27;;;;;;;9.07;8.17;;;23.30;1.00;;;;;;4994502;28;20594;-68
2021/06/16 06:50:53;;;;;;;10.00;8.40;;;23.40;1.00;;;;;;4994569;28;20625;-68
2021/06/16 06:53:21;;;;;;;13.97;7.73;;;23.50;1.00;;;;;;4994141;28;20664;-69
2021/06/16 06:55:48;;;;;;;11.03;7.17;;;23.40;1.00;;;;;;4994442;28;21125;-66
2021/06/16 06:58:14;;;;;;;8.30;6.80;;;23.60;1.00;;;;;;4994168;28;20616;-67
2021/06/16 07:00:41;;;;;;;7.30;6.60;;;23.60;1.00;;;;;;4993966;28;20629;-67
2021/06/16 07:03:07;;;;;;;8.83;6.43;;;23.60;1.00;;;;;;4993869;28;21180;-67
2021/06/16 07:05:34;;;;;;;10.57;7.00;;;23.60;1.00;;;;;;4993636;28;20633;-67
2021/06/16 07:08:00;;;;;;;9.70;8.07;;;23.70;1.00;;;;;;4994138;28;20943;-68
2021/06/16 07:10:27;;;;;;;9.93;7.90;;;23.60;1.00;;;;;;4994013;28;20625;-67
2021/06/16 07:12:53;;;;;;;7.73;6.70;;;23.60;1.00;;;;;;4994319;28;21227;-67
2021/06/16 07:15:20;;;;;;;9.50;7.80;;;23.80;1.00;;;;;;4994062;28;21001;-67
2021/06/16 07:17:46;;;;;;;8.50;7.40;;;23.90;1.00;;;;;;4994060;28;20604;-67
2021/06/16 07:20:16;;;;;;;7.47;6.87;;;24.00;1.00;;;;;;4995113;28;20604;-67
2021/06/16 07:22:47;;;;;;;10.23;6.80;;;24.10;1.00;;;;;;5000204;28;20625;-67
2021/06/16 07:25:14;;;;;;;7.93;6.80;;;24.00;1.00;;;;;;4999163;28;20935;-67
2021/06/16 07:27:43;;;;;;;7.40;6.80;;;24.20;1.00;;;;;;5000398;28;21122;-67
2021/06/16 07:30:10;;;;;;;10.80;7.10;;;24.30;1.00;;;;;;5000506;28;20624;-67
2021/06/16 07:32:36;;;;;;;9.97;7.30;;;24.20;1.00;;;;;;4999973;28;20637;-67
2021/06/16 07:35:04;;;;;;;7.10;5.67;;;24.60;1.00;;;;;;5000584;28;20605;-68
2021/06/16 07:37:30;;;;;;;9.53;6.03;;;24.80;1.00;;;;;;5000552;28;20690;-68
2021/06/16 07:39:57;;;;;;;6.53;5.97;;;24.60;21.20;;;;;;5000387;28;20593;-67
2021/06/16 07:42:24;;;;;;;6.33;5.83;;;24.60;12.30;;;;;;5000747;28;20625;-67
2021/06/16 07:44:50;;;;;;;6.60;5.93;;;24.60;22.30;;;;;;5000324;28;20660;-68
2021/06/16 07:47:17;;;;;;;7.10;6.20;;;24.50;68.10;;;;;;5000491;28;20955;-67
2021/06/16 07:49:43;;;;;;;9.13;7.60;;;24.30;70.50;;;;;;5000301;28;21271;-68
2021/06/16 07:52:10;;;;;;;9.40;6.50;;;24.40;48.60;;;;;;5000754;28;20609;-67
2021/06/16 07:54:36;;;;;;;9.47;6.50;;;24.70;67.40;;;;;;5000442;28;20704;-68
2021/06/16 07:57:03;;;;;;;6.73;6.23;;;24.90;99.90;;;;;;4985964;28;21160;-68
2021/06/16 07:59:29;;;;;;;6.10;5.70;;;25.20;99.90;;;;;;4999813;28;20636;-68
2021/06/16 08:01:56;;;;;;;7.20;6.57;;;25.20;99.90;;;;;;4999740;28;20614;-67
2021/06/16 08:04:24;;;;;;;8.07;6.90;;;25.30;99.90;;;;;;4999947;28;20640;-67
2021/06/16 08:06:51;;;;;;;13.80;6.73;;;24.90;99.90;;;;;;4999759;28;20621;-67
2021/06/16 08:09:18;;;;;;;10.10;7.17;;;25.10;99.90;;;;;;4999858;28;20617;-68
2021/06/16 08:11:45;;;;;;;7.17;6.20;;;25.30;99.90;;;;;;5000180;28;20617;-67
2021/06/16 08:14:11;;;;;;;7.00;6.30;;;25.60;99.90;;;;;;4999664;28;20657;-68
2021/06/16 08:16:38;;;;;;;9.60;6.83;;;25.70;99.90;;;;;;5014647;28;20617;-68
2021/06/16 08:19:04;;;;;;;6.73;6.20;;;25.50;99.90;;;;;;4999607;28;20624;-67
2021/06/16 08:21:30;;;;;;;7.40;6.60;;;25.90;99.90;;;;;;4999539;28;20633;-67
2021/06/16 08:23:57;;;;;;;6.53;5.93;;;26.10;99.90;;;;;;4999496;28;20618;-68
2021/06/16 08:26:23;;;;;;;7.43;6.67;;;25.90;99.90;;;;;;4999373;28;20893;-67
2021/06/16 08:28:49;;;;;;;8.30;5.87;;;25.90;99.90;;;;;;5000047;28;20838;-67
2021/06/16 08:31:16;;;;;;;9.87;6.80;;;25.90;99.90;;;;;;4999419;28;20617;-67
2021/06/16 08:33:42;;;;;;;9.90;5.70;;;25.90;99.90;;;;;;4995208;28;20716;-67
2021/06/16 08:36:09;;;;;;;7.60;5.77;;;25.70;99.90;;;;;;4996176;28;20713;-67
2021/06/16 08:38:35;;;;;;;6.57;5.77;;;26.20;99.90;;;;;;4996224;28;20669;-68
2021/06/16 08:41:05;;;;;;;7.03;5.47;;;26.50;99.90;;;;;;4996174;28;20650;-67
2021/06/16 08:43:41;;;;;;;9.50;6.10;;;26.40;99.90;;;;;;4996279;28;20705;-67
2021/06/16 08:46:10;;;;;;;12.70;6.10;;;26.50;99.90;;;;;;4996011;28;20660;-67
2021/06/16 08:48:39;;;;;;;10.93;6.33;;;26.70;99.90;;;;;;4996435;28;20622;-67
2021/06/16 08:51:07;;;;;;;6.33;5.70;;;26.80;99.90;;;;;;4996057;28;20632;-67
2021/06/16 08:53:33;;;;;;;8.50;5.90;;;26.80;99.90;;;;;;4995960;28;20684;-67
2021/06/16 08:56:00;;;;;;;6.63;6.03;;;26.80;99.90;;;;;;4993060;28;20957;-67
2021/06/16 08:58:27;;;;;;;6.60;6.00;;;26.70;99.90;;;;;;4981291;28;20966;-68
2021/06/16 09:00:53;;;;;;;6.00;5.50;;;27.00;99.90;;;;;;4991424;28;20624;-67
2021/06/16 09:03:20;;;;;;;6.80;6.17;;;27.00;99.90;;;;;;4995783;28;20629;-68
2021/06/16 09:05:49;;;;;;;6.17;5.57;;;27.10;99.90;;;;;;4995726;28;21034;-68
2021/06/16 09:08:19;;;;;;;6.93;5.50;;;27.40;99.90;;;;;;4995820;28;20724;-68
2021/06/16 09:10:56;;;;;;;6.97;5.37;;;27.70;99.90;;;;;;4995934;28;20613;-68
2021/06/16 09:13:33;;;;;;;7.30;5.90;;;27.80;99.90;;;;;;4982813;28;20629;-68
2021/06/16 09:16:01;;;;;;;6.37;5.90;;;27.90;99.90;;;;;;4995969;28;20621;-68
2021/06/16 09:18:42;;;;;;;6.90;6.27;;;27.90;99.90;;;;;;4981995;28;20685;-68
2021/06/16 09:21:09;;;;;;;8.57;5.80;;;27.80;99.90;;;;;;4991109;28;21140;-68
2021/06/16 09:23:35;;;;;;;8.30;5.87;;;27.80;99.90;;;;;;4993930;28;20632;-68
2021/06/16 09:26:14;;;;;;;6.47;5.87;;;27.80;99.90;;;;;;4995575;28;21195;-68
2021/06/16 09:28:50;;;;;;;8.73;7.00;;;28.10;99.90;;;;;;5000790;28;20974;-68
2021/06/16 09:31:20;;;;;;;12.03;5.73;;;27.80;99.90;;;;;;4994152;28;20625;-68
2021/06/16 09:33:47;;;;;;;6.10;5.60;;;27.80;99.90;;;;;;4995807;28;20662;-68
2021/06/16 09:36:22;;;;;;;7.43;5.93;;;28.00;99.90;;;;;;4995628;28;20605;-68
2021/06/16 09:38:50;;;;;;;6.63;6.03;;;28.10;99.90;;;;;;4995686;28;20661;-67
2021/06/16 09:41:22;;;;;;;5.73;5.23;;;28.10;99.90;;;;;;4995431;28;20634;-68
2021/06/16 09:43:54;;;;;;;8.63;6.00;;;28.20;99.90;;;;;;4995333;28;20938;-68
2021/06/16 09:46:20;;;;;;;10.93;6.40;;;28.50;99.90;;;;;;4995528;28;20629;-68
2021/06/16 09:48:49;;;;;;;6.50;5.90;;;28.80;99.90;;;;;;4995525;28;20611;-68
2021/06/16 09:51:24;;;;;;;6.57;6.00;;;28.50;99.90;;;;;;4995311;28;20637;-68
2021/06/16 09:54:13;;;;;;;6.20;5.60;;;28.90;99.90;;;;;;4994110;28;20661;-68
2021/06/16 09:56:42;;;;;;;6.00;5.40;;;28.70;99.90;;;;;;4995514;28;20629;-68
2021/06/16 09:59:10;;;;;;;5.90;5.30;;;28.60;99.90;;;;;;4995346;28;20602;-69
2021/06/16 10:01:46;;;;;;;5.70;5.20;;;28.90;99.90;;;;;;4994598;28;20724;-68
2021/06/16 10:04:33;;;;;;;5.80;5.10;;;29.20;99.90;;;;;;4995720;28;20907;-67
2021/06/16 10:07:20;;;;;;;5.77;5.37;;;29.30;99.90;;;;;;4995242;28;21248;-68
2021/06/16 10:09:49;;;;;;;7.07;4.80;;;29.60;99.90;;;;;;4995671;28;20582;-67
2021/06/16 10:12:16;;;;;;;5.57;5.03;;;29.70;99.90;;;;;;4995137;28;20596;-68
2021/06/16 10:14:43;;;;;;;6.93;5.33;;;29.80;99.90;;;;;;4995063;28;20661;-67
2021/06/16 10:17:10;;;;;;;5.47;5.07;;;29.40;99.90;;;;;;4993488;28;21192;-67
2021/06/16 10:19:37;;;;;;;5.97;5.07;;;29.50;99.90;;;;;;4994957;28;20629;-67
2021/06/16 10:22:04;;;;;;;5.07;4.53;;;29.70;99.90;;;;;;4995393;28;20618;-67
2021/06/16 10:24:30;;;;;;;6.37;4.47;;;30.10;99.90;;;;;;4995222;28;21240;-67
2021/06/16 10:27:00;;;;;;;5.50;4.83;;;30.10;99.90;;;;;;4994963;28;21042;-67
2021/06/16 10:29:31;;;;;;;8.83;4.63;;;30.10;99.90;;;;;;4995017;28;20598;-67
2021/06/16 10:32:08;;;;;;;14.63;4.90;;;30.10;99.90;;;;;;4994871;28;21120;-68
2021/06/16 10:34:53;;;;;;;4.80;4.40;;;30.20;99.90;;;;;;4994922;28;20596;-68
2021/06/16 10:37:25;;;;;;;5.33;4.60;;;29.80;99.90;;;;;;4994909;28;20628;-68
2021/06/16 10:40:17;;;;;;;5.63;5.13;;;30.00;99.90;;;;;;4995080;28;20654;-68
2021/06/16 10:42:58;;;;;;;7.07;5.40;;;30.40;99.90;;;;;;4994982;28;20748;-68
2021/06/16 10:45:39;;;;;;;7.20;4.97;;;30.50;99.90;;;;;;4994569;28;20642;-68
2021/06/16 10:48:08;;;;;;;10.97;4.97;;;30.40;99.90;;;;;;4995010;28;20621;-68
2021/06/16 10:50:46;;;;;;;9.63;4.73;;;29.90;99.90;;;;;;4994917;28;20637;-68
2021/06/16 10:53:18;;;;;;;6.73;4.60;;;30.70;99.90;;;;;;4994701;28;20652;-68
2021/06/16 10:55:54;;;;;;;6.00;4.80;;;31.10;99.90;;;;;;4994045;28;20966;-68
2021/06/16 10:58:22;;;;;;;4.70;4.40;;;30.80;99.90;;;;;;4994584;28;20985;-69
2021/06/16 11:01:20;;;;;;;9.33;4.90;;;30.80;99.90;;;;;;4994480;28;20606;-68
2021/06/16 11:03:52;;;;;;;5.63;5.03;;;31.20;99.90;;;;;;4994209;28;21065;-68
2021/06/16 11:06:34;;;;;;;7.00;4.53;;;30.80;99.90;;;;;;4994366;28;20636;-69
2021/06/16 11:09:08;;;;;;;6.20;4.30;;;30.80;99.90;;;;;;4994308;28;21012;-68
2021/06/16 11:11:49;;;;;;;4.67;4.00;;;31.20;99.90;;;;;;4994553;28;21000;-67
2021/06/16 11:14:49;;;;;;;10.43;5.00;;;31.70;99.90;;;;;;4994610;28;21014;-67
2021/06/16 11:17:27;;;;;;;5.07;4.60;;;32.00;99.90;;;;;;4961422;28;20642;-67
2021/06/16 11:19:58;;;;;;;5.30;4.00;;;32.00;99.90;;;;;;4994473;28;20632;-68
2021/06/16 11:22:24;;;;;;;4.93;4.50;;;31.60;99.90;;;;;;4994102;28;21145;-67
2021/06/16 11:25:10;;;;;;;5.00;4.40;;;32.20;99.90;;;;;;4994182;28;20606;-67
2021/06/16 11:27:57;;;;;;;4.80;4.40;;;32.60;99.90;;;;;;4993003;28;20669;-68
2021/06/16 11:30:39;;;;;;;4.63;4.33;;;33.70;99.90;;;;;;4994469;28;20716;-68
2021/06/16 11:33:12;;;;;;;9.40;4.20;;;34.30;99.90;;;;;;4976847;28;20676;-67
2021/06/16 11:35:43;;;;;;;5.10;4.37;;;33.10;99.90;;;;;;4992480;28;20614;-68
2021/06/16 11:38:11;;;;;;;5.07;4.60;;;32.70;99.90;;;;;;4993887;28;20614;-67
2021/06/16 11:40:38;;;;;;;5.77;4.60;;;32.20;99.90;;;;;;4993804;28;20716;-68
2021/06/16 11:43:04;;;;;;;5.50;4.63;;;32.20;99.90;;;;;;4993910;28;20598;-68
2021/06/16 11:45:32;;;;;;;4.47;4.07;;;32.90;99.90;;;;;;4993726;28;20701;-68
2021/06/16 11:48:00;;;;;;;4.70;3.70;;;33.60;99.90;;;;;;4993860;28;21156;-68
2021/06/16 11:50:32;;;;;;;4.30;3.50;;;34.10;99.90;;;;;;4993421;28;20981;-68
2021/06/16 11:53:01;;;;;;;6.83;4.40;;;34.50;99.90;;;;;;4993624;28;20693;-68
2021/06/16 11:55:47;;;;;;;5.27;4.30;;;34.90;99.90;;;;;;4993999;28;20972;-68
2021/06/16 11:58:35;;;;;;;3.93;3.70;;;34.70;99.90;;;;;;4993634;28;20725;-68
2021/06/16 12:01:16;;;;;;;4.77;3.83;;;35.50;99.90;;;;;;4994074;28;20617;-68
2021/06/16 12:03:45;;;;;;;5.27;3.63;;;34.00;99.90;;;;;;4994101;28;20625;-68
2021/06/16 12:06:15;;;;;;;3.90;3.60;;;34.30;99.90;;;;;;4993489;28;20606;-68
2021/06/16 12:08:43;;;;;;;3.60;3.30;;;34.70;99.90;;;;;;4997302;28;20717;-68
2021/06/16 12:11:23;;;;;;;3.27;2.97;;;35.70;99.90;;;;;;4997426;28;20618;-67
2021/06/16 12:14:00;;;;;;;3.37;3.07;;;34.30;99.90;;;;;;4997017;28;20597;-68
2021/06/16 12:16:41;;;;;;;3.13;3.03;;;35.00;99.90;;;;;;4997066;28;21136;-68
2021/06/16 12:19:12;;;;;;;7.80;3.87;;;35.70;99.90;;;;;;4997485;28;20918;-68
2021/06/16 12:21:40;;;;;;;4.33;3.20;;;34.40;99.90;;;;;;4997257;28;20644;-68
2021/06/16 12:24:17;;;;;;;4.00;3.60;;;35.80;99.90;;;;;;4997221;28;20631;-68
2021/06/16 12:27:03;;;;;;;4.53;3.77;;;36.20;99.90;;;;;;4997114;28;20727;-68
2021/06/16 12:29:36;;;;;;;6.27;3.40;;;36.30;99.90;;;;;;4997112;28;20629;-68
2021/06/16 12:32:06;;;;;;;3.83;3.53;;;36.00;99.90;;;;;;4996826;28;20603;-68
2021/06/16 12:34:35;;;;;;;3.70;3.43;;;35.20;99.90;;;;;;4996665;28;20643;-68
2021/06/16 12:37:16;;;;;;;3.43;3.20;;;35.10;99.90;;;;;;4996887;28;21184;-68
2021/06/16 12:39:58;;;;;;;5.47;3.60;;;36.00;99.90;;;;;;4996346;28;20621;-68
2021/06/16 12:43:00;;;;;;;6.60;3.13;;;35.60;99.90;;;;;;4996764;28;21175;-68
2021/06/16 12:45:32;;;;;;;3.53;3.33;;;35.90;99.90;;;;;;4936743;29;20704;-68
2021/06/16 12:48:03;;;;;;;3.73;3.43;;;37.10;99.90;;;;;;4999700;28;20637;-68
2021/06/16 12:50:32;;;;;;;6.30;3.27;;;37.70;99.90;;;;;;4996699;28;20994;-68
2021/06/16 12:52:59;;;;;;;4.10;3.27;;;37.10;99.90;;;;;;4995240;28;20669;-69
2021/06/16 12:55:25;;;;;;;3.60;3.40;;;36.50;99.90;;;;;;4995068;28;20609;-68